KENV/ENV METAR and TAF weather

Enter ICAO airport designator
Station Type Date Time Source
KENV METAR 2019/06/17 04:56 UTC NOAA

KENV 170456Z AUTO 01003KT 10SM CLR 22/06 A2993 RMK AO2 SLP096 T02170061


Station Type Date Time Source
KENV Decoded METAR 2019/06/17 04:56 UTC NOAA

Wendover / Air Force Auxillary Field, UT, United States (KENV) 40-44N 114-02W 1292M
Jun 17, 2019 - 12:56 AM EDT / 2019.06.17 0456 UTC
Wind: from the N (010 degrees) at 3 MPH (3 KT):0
Visibility: 10 mile(s):0
Sky conditions: clear
Temperature: 71.1 F (21.7 C)
Dew Point: 43.0 F (6.1 C)
Relative Humidity: 36%
Pressure (altimeter): 29.93 in. Hg (1013 hPa)
ob: KENV 170456Z AUTO 01003KT 10SM CLR 22/06 A2993 RMK AO2 SLP096 T02170061
cycle: 5

Station Type Date Time Source
KENV TAF 2019/06/16 23:54 UTC NOAA

TAF
AMD KENV 162252Z 1623/1718 20011KT P6SM SCT150
FM170300 VRB04KT P6SM SCT150

Example: see airport list